Accueil
METAR-TAF:

METAR-TAF

Aéroports :

Newport, Vermont, États-Unis

latitude: 44-53-20N, longitude: 072-13-45W, altitude: 283 m

Observation

Le bulletin a été fait il y a 17 minutes, à 00:55 UTC
Vent 6 kt de ouest
Température 0°C
Humidité 64%
Pression 1015 hPa
Visibilité: 16.1 km
Ciel couvert à une hauteur de 6000 ft

METAR: KEFK 220055Z AUTO 28006KT 10SM OVC060 00/M06 A2998 RMK AO2 T00021056

Heure: 21:12 (01:12 UTC)


TAF: absent

Observations et prévisions météorologiques de plus de 4000 aéroports (messages METAR et TAF).

Les stations disponibles sont représentées par des disques jaunes et rouges sur la carte.

Passer la souris dessus pour voir le nom de la station.

Cliquer dessus pour voir les observations et prévisions météorologiques.

Pour changer de carte: cliquez sur les boutons verts avec une croix noire pour zoomer, sur le bouton vert avec un tiret pour effectuer un zoom arrière, ou sur les flèches vertes pour les cartes adjacentes.


METAR-TAF: